»·PEaware :: N5GL KFLG-KHND

N5GL :: KFLG-KHND

FLIGHT INFORMATION

Flight Status: Arrived
Operator: Privately registered:
United States
More flights under this callsign
Pilot: Georg L. (13308)
Aircraft: SOCATA TBM-900
(TBM9)
More flights by this aircraft type
Origin: KFLG Flagstaff Pulliam
United States
Destination: KHND Henderson
United States
More flights between these airports :: More routes between these airports
Route: +FLG1 OATES FLG V105 BLD
File this flight plan on PilotEdge
Remarks:
Altitude:
(Current/Filed)
24,000ft
Speed:
(Current/Filed)
319kts
Departed: 28-Apr-20 11:02 AM
Arrived: 28-Apr-20 11:50 AM
Distance/Time
Traveled:
177nm/0:48
Distance/Time
To Go:
Arrived

Flight Plot

Page will automatically refresh every two minutes.

Flight plan parsing failed; only flown route is shown


Map Options




Map Legend


Flown Route
Filed Route
Departure Airport
Arrival Airport
Navaid (VOR, NDB)
Fix

Horizontal Profiles

Position Reports

Time Latitude Longitude Heading Altitude Ground
Speed
28-Apr-20 10:40 35.137357 -111.675411 220 7007ft 0kts
28-Apr-20 10:41 35.137357 -111.675411 220 7007ft 0kts
28-Apr-20 10:42 35.137357 -111.675411 220 7007ft 0kts
28-Apr-20 10:43 35.137357 -111.675411 220 7007ft 0kts
28-Apr-20 10:44 35.137357 -111.675411 220 7007ft 0kts
28-Apr-20 10:45 35.137357 -111.675411 220 7007ft 0kts
28-Apr-20 10:46 35.137357 -111.675411 220 7007ft 0kts
28-Apr-20 10:47 35.137357 -111.675411 220 7007ft 0kts
28-Apr-20 10:48 35.137357 -111.675411 220 7007ft 0kts
28-Apr-20 10:49 35.137357 -111.675411 220 7007ft 0kts
28-Apr-20 10:50 35.137357 -111.675411 220 7007ft 0kts
28-Apr-20 10:51 35.137357 -111.675411 220 7007ft 0kts
28-Apr-20 10:52 35.137357 -111.675411 220 7007ft 0kts
28-Apr-20 10:53 35.137356 -111.675411 220 7007ft 0kts
28-Apr-20 10:54 35.137026 -111.675120 127 7007ft 2kts
28-Apr-20 10:55 35.137025 -111.675118 127 7007ft 0kts
28-Apr-20 10:56 35.137835 -111.673676 41 7005ft 19kts
28-Apr-20 10:57 35.142992 -111.668167 40 7004ft 28kts
28-Apr-20 10:58 35.148904 -111.661838 41 6975ft 24kts
28-Apr-20 10:59 35.149884 -111.660340 133 6976ft 0kts
28-Apr-20 11:00 35.149698 -111.660102 133 6980ft 7kts
28-Apr-20 11:01 35.143454 -111.665889 217 7045ft 115kts
28-Apr-20 11:02 35.108267 -111.680909 175 9074ft 156kts
28-Apr-20 11:03 35.063226 -111.684648 185 11036ft 199kts
28-Apr-20 11:04 35.004561 -111.692171 186 12722ft 219kts
28-Apr-20 11:05 34.942137 -111.700194 185 14477ft 231kts
28-Apr-20 11:06 34.894627 -111.706277 185 15756ft 238kts
28-Apr-20 11:07 34.860657 -111.753549 258 17240ft 237kts
28-Apr-20 11:08 34.843823 -111.832196 258 18972ft 243kts
28-Apr-20 11:09 34.826475 -111.912755 258 20582ft 249kts
28-Apr-20 11:10 34.808689 -111.995076 258 22177ft 255kts
28-Apr-20 11:11 34.790442 -112.079225 258 23779ft 260kts
28-Apr-20 11:12 34.770802 -112.169549 258 24267ft 297kts
28-Apr-20 11:13 34.748862 -112.269828 257 24269ft 312kts
28-Apr-20 11:14 34.726216 -112.372990 257 24274ft 317kts
28-Apr-20 11:15 34.706736 -112.477458 281 24233ft 312kts
28-Apr-20 11:17 34.750200 -112.565274 307 24274ft 304kts
28-Apr-20 11:18 34.797437 -112.649774 307 24273ft 304kts
28-Apr-20 11:19 34.845083 -112.735159 306 24272ft 304kts
28-Apr-20 11:20 34.892580 -112.820476 306 24272ft 304kts
28-Apr-20 11:21 34.940016 -112.905883 306 24272ft 303kts
28-Apr-20 11:22 34.987219 -112.991096 305 24272ft 302kts
28-Apr-20 11:23 35.034031 -113.075813 305 24264ft 300kts
28-Apr-20 11:24 35.080674 -113.160470 304 24234ft 300kts
28-Apr-20 11:25 35.126771 -113.244300 305 24209ft 300kts
28-Apr-20 11:26 35.173381 -113.329265 305 24192ft 299kts
28-Apr-20 11:27 35.219660 -113.413831 305 24192ft 299kts
28-Apr-20 11:28 35.265883 -113.498500 305 24192ft 299kts
28-Apr-20 11:29 35.312090 -113.583248 305 24191ft 298kts
28-Apr-20 11:30 35.357573 -113.666923 304 24193ft 299kts
28-Apr-20 11:31 35.403771 -113.752221 304 24192ft 299kts
28-Apr-20 11:31 35.442201 -113.823338 304 24192ft 299kts
28-Apr-20 11:33 35.498271 -113.927213 304 22595ft 323kts
28-Apr-20 11:34 35.547775 -114.019238 304 20894ft 322kts
28-Apr-20 11:34 35.588774 -114.095646 304 19471ft 321kts
28-Apr-20 11:35 35.637102 -114.185940 304 17935ft 311kts
28-Apr-20 11:36 35.684349 -114.274446 304 16554ft 307kts
28-Apr-20 11:38 35.738355 -114.375898 304 14984ft 300kts
28-Apr-20 11:38 35.776159 -114.447076 304 13885ft 295kts
28-Apr-20 11:39 35.820661 -114.531118 303 12590ft 290kts
28-Apr-20 11:40 35.826184 -114.630668 271 10956ft 297kts
28-Apr-20 11:41 35.825326 -114.730803 271 9977ft 279kts
28-Apr-20 11:42 35.835713 -114.825745 281 8828ft 282kts
28-Apr-20 11:43 35.848801 -114.921572 281 7312ft 282kts
28-Apr-20 11:44 35.861364 -115.013161 281 6983ft 258kts
28-Apr-20 11:45 35.878380 -115.092989 293 6065ft 225kts
28-Apr-20 11:46 35.911454 -115.135308 351 4643ft 142kts
28-Apr-20 11:47 35.941294 -115.135942 3 3153ft 90kts
28-Apr-20 11:48 35.965871 -115.135514 359 2480ft 75kts
28-Apr-20 11:49 35.970921 -115.136313 280 2447ft 0kts
28-Apr-20 11:50 35.970921 -115.136313 280 2447ft 0kts
28-Apr-20 11:51 35.970921 -115.136313 280 2447ft 0kts
28-Apr-20 11:52 35.973271 -115.136433 1 2436ft 23kts
28-Apr-20 11:53 35.974633 -115.138631 2 2424ft 8kts
28-Apr-20 11:54 35.975068 -115.138216 0 2425ft 0kts
28-Apr-20 11:55 35.975068 -115.138216 0 2425ft 0kts
28-Apr-20 11:56 35.975068 -115.138216 0 2425ft 0kts
28-Apr-20 11:57 35.975068 -115.138216 0 2425ft 0kts
28-Apr-20 11:58 35.975068 -115.138216 0 2425ft 0kts
28-Apr-20 11:59 35.975068 -115.138216 0 2425ft 0kts

Navigation Log

Ident Type
Flight plan parsing failed, navigation log unavailable